CYRQ

Trois-Rivieres Airport

Trois-Rivieres, , Canada
METAR CYRQ 171100Z AUTO 02003KT 9SM OVC030 M03/M03 A2971 RMK SLP064
Observed Flight Rules
Dec-17 @ 11:00 UTC (an hour ago) Marginal Visual Flight Rules
Wind Visibility Clouds
20° at 3 knots 9 miles
  • Overcast at 3,000' AGL
Temperatures Readings
Current -3°C / 27°F
Dewpoint -3°C / 27°F
Humidity 100%
Altimeter 29.71" Hg
Pressure 1006.4 hPa
Elevation 61
METAR CYRQ 171100Z AUTO 02003KT 9SM OVC030 M03/M03 A2971 RMK SLP064
Observed Flight Rules
Dec-17 @ 11:00 UTC
(an hour ago)
MVFR
Wind Visibility
20° at 3 knots 9 miles
Clouds
  • Overcast at 3,000' AGL
Temperature Dewpoint
-3°C / 27°F -3°C / 27°F
Humidity Altimeter Pressure
100% 29.71" Hg 1006.4 hPa